sensor_id;sensor_type;location;lat;lon;timestamp;P1;durP1;ratioP1;P2;durP2;ratioP2
64353;SDS011;50681;53.334;-6.536;2023-11-19T00:02:07;40.83;;;5.63;;
64353;SDS011;50681;53.334;-6.536;2023-11-19T00:04:36;29.35;;;4.55;;
64353;SDS011;50681;53.334;-6.536;2023-11-19T00:07:02;40.47;;;5.18;;
64353;SDS011;50681;53.334;-6.536;2023-11-19T00:09:30;48.55;;;7.15;;
64353;SDS011;50681;53.334;-6.536;2023-11-19T00:11:56;32.88;;;5.57;;
64353;SDS011;50681;53.334;-6.536;2023-11-19T00:14:22;46.13;;;8.05;;
64353;SDS011;50681;53.334;-6.536;2023-11-19T00:16:49;38.85;;;6.43;;
64353;SDS011;50681;53.334;-6.536;2023-11-19T00:19:16;36.75;;;6.35;;
64353;SDS011;50681;53.334;-6.536;2023-11-19T00:21:41;41.97;;;6.13;;
64353;SDS011;50681;53.334;-6.536;2023-11-19T00:24:07;40.70;;;7.17;;
64353;SDS011;50681;53.334;-6.536;2023-11-19T00:26:33;37.22;;;6.78;;
64353;SDS011;50681;53.334;-6.536;2023-11-19T00:28:58;44.33;;;7.20;;
64353;SDS011;50681;53.334;-6.536;2023-11-19T00:31:24;38.67;;;6.10;;
64353;SDS011;50681;53.334;-6.536;2023-11-19T00:33:52;43.80;;;7.50;;
64353;SDS011;50681;53.334;-6.536;2023-11-19T00:36:18;39.38;;;8.73;;
64353;SDS011;50681;53.334;-6.536;2023-11-19T00:38:44;54.58;;;8.15;;
64353;SDS011;50681;53.334;-6.536;2023-11-19T00:41:09;49.50;;;9.30;;
64353;SDS011;50681;53.334;-6.536;2023-11-19T00:43:35;38.43;;;7.47;;
64353;SDS011;50681;53.334;-6.536;2023-11-19T00:46:01;48.88;;;7.75;;
64353;SDS011;50681;53.334;-6.536;2023-11-19T00:48:28;48.90;;;8.82;;
64353;SDS011;50681;53.334;-6.536;2023-11-19T00:50:53;61.40;;;7.37;;
64353;SDS011;50681;53.334;-6.536;2023-11-19T00:53:19;38.97;;;7.90;;
64353;SDS011;50681;53.334;-6.536;2023-11-19T00:55:44;38.53;;;6.37;;
64353;SDS011;50681;53.334;-6.536;2023-11-19T00:58:09;49.47;;;6.87;;
64353;SDS011;50681;53.334;-6.536;2023-11-19T01:00:35;32.53;;;5.60;;
64353;SDS011;50681;53.334;-6.536;2023-11-19T01:03:00;49.97;;;6.90;;
64353;SDS011;50681;53.334;-6.536;2023-11-19T01:05:26;38.97;;;6.07;;
64353;SDS011;50681;53.334;-6.536;2023-11-19T01:07:52;33.03;;;6.63;;
64353;SDS011;50681;53.334;-6.536;2023-11-19T01:12:44;39.95;;;6.53;;
64353;SDS011;50681;53.334;-6.536;2023-11-19T01:15:09;46.00;;;7.03;;
64353;SDS011;50681;53.334;-6.536;2023-11-19T01:17:36;37.17;;;5.65;;
64353;SDS011;50681;53.334;-6.536;2023-11-19T01:20:03;30.73;;;5.93;;
64353;SDS011;50681;53.334;-6.536;2023-11-19T01:22:31;36.35;;;5.55;;
64353;SDS011;50681;53.334;-6.536;2023-11-19T01:24:56;28.90;;;5.67;;
64353;SDS011;50681;53.334;-6.536;2023-11-19T01:27:23;41.00;;;5.13;;
64353;SDS011;50681;53.334;-6.536;2023-11-19T01:29:49;27.25;;;4.10;;
64353;SDS011;50681;53.334;-6.536;2023-11-19T01:32:15;29.60;;;4.38;;
64353;SDS011;50681;53.334;-6.536;2023-11-19T01:34:40;20.57;;;3.40;;
64353;SDS011;50681;53.334;-6.536;2023-11-19T01:37:06;32.13;;;4.65;;
64353;SDS011;50681;53.334;-6.536;2023-11-19T01:39:31;31.30;;;3.95;;
64353;SDS011;50681;53.334;-6.536;2023-11-19T01:41:57;28.87;;;4.47;;
64353;SDS011;50681;53.334;-6.536;2023-11-19T01:44:22;23.70;;;4.00;;
64353;SDS011;50681;53.334;-6.536;2023-11-19T01:46:48;26.47;;;4.70;;
64353;SDS011;50681;53.334;-6.536;2023-11-19T01:49:17;24.20;;;4.43;;
64353;SDS011;50681;53.334;-6.536;2023-11-19T01:51:43;28.55;;;4.32;;
64353;SDS011;50681;53.334;-6.536;2023-11-19T01:54:10;26.70;;;4.13;;
64353;SDS011;50681;53.334;-6.536;2023-11-19T01:59:05;34.90;;;4.50;;
64353;SDS011;50681;53.334;-6.536;2023-11-19T02:06:25;33.45;;;5.55;;
64353;SDS011;50681;53.334;-6.536;2023-11-19T02:08:51;31.42;;;4.22;;
64353;SDS011;50681;53.334;-6.536;2023-11-19T02:11:17;26.85;;;4.13;;
64353;SDS011;50681;53.334;-6.536;2023-11-19T02:13:42;31.23;;;4.27;;
64353;SDS011;50681;53.334;-6.536;2023-11-19T02:16:09;24.52;;;3.80;;
64353;SDS011;50681;53.334;-6.536;2023-11-19T02:18:36;33.97;;;5.82;;
64353;SDS011;50681;53.334;-6.536;2023-11-19T02:21:01;23.23;;;4.30;;
64353;SDS011;50681;53.334;-6.536;2023-11-19T02:23:27;24.65;;;3.60;;
64353;SDS011;50681;53.334;-6.536;2023-11-19T02:26:08;26.10;;;3.95;;
64353;SDS011;50681;53.334;-6.536;2023-11-19T02:28:36;25.80;;;3.47;;
64353;SDS011;50681;53.334;-6.536;2023-11-19T02:31:02;22.92;;;3.80;;
64353;SDS011;50681;53.334;-6.536;2023-11-19T02:33:29;30.52;;;4.07;;
64353;SDS011;50681;53.334;-6.536;2023-11-19T02:35:55;26.37;;;4.50;;
64353;SDS011;50681;53.334;-6.536;2023-11-19T02:38:21;30.02;;;4.18;;
64353;SDS011;50681;53.334;-6.536;2023-11-19T02:40:47;32.38;;;3.90;;
64353;SDS011;50681;53.334;-6.536;2023-11-19T02:43:12;28.85;;;3.90;;
64353;SDS011;50681;53.334;-6.536;2023-11-19T02:45:38;26.90;;;4.73;;
64353;SDS011;50681;53.334;-6.536;2023-11-19T02:48:03;27.87;;;3.73;;
64353;SDS011;50681;53.334;-6.536;2023-11-19T02:50:31;28.42;;;4.18;;
64353;SDS011;50681;53.334;-6.536;2023-11-19T02:52:57;25.60;;;3.83;;
64353;SDS011;50681;53.334;-6.536;2023-11-19T02:55:23;23.10;;;3.10;;
64353;SDS011;50681;53.334;-6.536;2023-11-19T02:57:49;20.27;;;4.07;;
64353;SDS011;50681;53.334;-6.536;2023-11-19T03:00:15;32.60;;;4.53;;
64353;SDS011;50681;53.334;-6.536;2023-11-19T03:02:42;29.10;;;3.78;;
64353;SDS011;50681;53.334;-6.536;2023-11-19T03:05:13;25.73;;;4.50;;
64353;SDS011;50681;53.334;-6.536;2023-11-19T03:07:42;30.35;;;4.47;;
64353;SDS011;50681;53.334;-6.536;2023-11-19T03:10:09;27.83;;;5.38;;
64353;SDS011;50681;53.334;-6.536;2023-11-19T03:12:38;17.88;;;4.28;;
64353;SDS011;50681;53.334;-6.536;2023-11-19T03:15:05;29.83;;;4.50;;
64353;SDS011;50681;53.334;-6.536;2023-11-19T03:17:30;23.95;;;3.78;;
64353;SDS011;50681;53.334;-6.536;2023-11-19T03:19:56;24.93;;;4.33;;
64353;SDS011;50681;53.334;-6.536;2023-11-19T03:22:21;33.33;;;4.57;;
64353;SDS011;50681;53.334;-6.536;2023-11-19T03:24:47;18.37;;;3.50;;
64353;SDS011;50681;53.334;-6.536;2023-11-19T03:27:12;26.97;;;4.43;;
64353;SDS011;50681;53.334;-6.536;2023-11-19T03:29:38;26.63;;;4.50;;
64353;SDS011;50681;53.334;-6.536;2023-11-19T03:32:03;18.23;;;3.87;;
64353;SDS011;50681;53.334;-6.536;2023-11-19T03:34:29;15.20;;;2.90;;
64353;SDS011;50681;53.334;-6.536;2023-11-19T03:36:55;31.87;;;4.10;;
64353;SDS011;50681;53.334;-6.536;2023-11-19T03:39:22;23.35;;;4.05;;
64353;SDS011;50681;53.334;-6.536;2023-11-19T03:41:49;16.23;;;2.63;;
64353;SDS011;50681;53.334;-6.536;2023-11-19T03:44:15;26.10;;;4.23;;
64353;SDS011;50681;53.334;-6.536;2023-11-19T03:46:40;22.40;;;3.90;;
64353;SDS011;50681;53.334;-6.536;2023-11-19T03:49:06;18.47;;;3.63;;
64353;SDS011;50681;53.334;-6.536;2023-11-19T03:51:32;19.35;;;3.45;;
64353;SDS011;50681;53.334;-6.536;2023-11-19T03:53:59;23.03;;;3.20;;
64353;SDS011;50681;53.334;-6.536;2023-11-19T03:56:25;20.60;;;4.18;;
64353;SDS011;50681;53.334;-6.536;2023-11-19T03:58:50;23.83;;;3.80;;
64353;SDS011;50681;53.334;-6.536;2023-11-19T04:01:17;23.60;;;4.15;;
64353;SDS011;50681;53.334;-6.536;2023-11-19T04:03:42;18.23;;;3.00;;
64353;SDS011;50681;53.334;-6.536;2023-11-19T04:06:08;19.00;;;2.80;;
64353;SDS011;50681;53.334;-6.536;2023-11-19T04:08:33;18.47;;;3.40;;
64353;SDS011;50681;53.334;-6.536;2023-11-19T04:13:26;17.50;;;2.85;;
64353;SDS011;50681;53.334;-6.536;2023-11-19T04:15:51;18.47;;;3.60;;
64353;SDS011;50681;53.334;-6.536;2023-11-19T04:18:16;21.87;;;4.23;;
64353;SDS011;50681;53.334;-6.536;2023-11-19T04:20:42;20.33;;;3.10;;
64353;SDS011;50681;53.334;-6.536;2023-11-19T04:23:10;19.60;;;3.10;;
64353;SDS011;50681;53.334;-6.536;2023-11-19T04:25:36;22.60;;;3.45;;
64353;SDS011;50681;53.334;-6.536;2023-11-19T04:28:02;17.73;;;2.97;;
64353;SDS011;50681;53.334;-6.536;2023-11-19T04:30:27;19.92;;;2.78;;
64353;SDS011;50681;53.334;-6.536;2023-11-19T04:32:53;20.42;;;3.50;;
64353;SDS011;50681;53.334;-6.536;2023-11-19T04:35:18;17.73;;;2.97;;
64353;SDS011;50681;53.334;-6.536;2023-11-19T04:37:44;17.80;;;3.97;;
64353;SDS011;50681;53.334;-6.536;2023-11-19T04:40:09;26.63;;;4.57;;
64353;SDS011;50681;53.334;-6.536;2023-11-19T04:42:36;28.65;;;3.92;;
64353;SDS011;50681;53.334;-6.536;2023-11-19T04:45:05;23.55;;;4.03;;
64353;SDS011;50681;53.334;-6.536;2023-11-19T04:47:31;22.85;;;3.42;;
64353;SDS011;50681;53.334;-6.536;2023-11-19T04:49:58;23.52;;;3.85;;
64353;SDS011;50681;53.334;-6.536;2023-11-19T04:52:23;30.13;;;4.23;;
64353;SDS011;50681;53.334;-6.536;2023-11-19T04:54:48;18.00;;;3.77;;
64353;SDS011;50681;53.334;-6.536;2023-11-19T04:57:14;18.17;;;3.77;;
64353;SDS011;50681;53.334;-6.536;2023-11-19T04:59:39;17.43;;;2.73;;
64353;SDS011;50681;53.334;-6.536;2023-11-19T05:02:06;18.20;;;3.00;;
64353;SDS011;50681;53.334;-6.536;2023-11-19T05:04:31;19.97;;;3.10;;
64353;SDS011;50681;53.334;-6.536;2023-11-19T05:06:57;15.70;;;2.67;;
64353;SDS011;50681;53.334;-6.536;2023-11-19T05:09:22;20.37;;;2.97;;
64353;SDS011;50681;53.334;-6.536;2023-11-19T05:11:48;17.37;;;3.27;;
64353;SDS011;50681;53.334;-6.536;2023-11-19T05:14:13;16.97;;;2.80;;
64353;SDS011;50681;53.334;-6.536;2023-11-19T05:16:39;15.00;;;3.13;;
64353;SDS011;50681;53.334;-6.536;2023-11-19T05:19:05;17.02;;;2.92;;
64353;SDS011;50681;53.334;-6.536;2023-11-19T05:21:31;17.27;;;3.37;;
64353;SDS011;50681;53.334;-6.536;2023-11-19T05:23:56;19.73;;;2.53;;
64353;SDS011;50681;53.334;-6.536;2023-11-19T05:26:22;11.17;;;2.10;;
64353;SDS011;50681;53.334;-6.536;2023-11-19T05:28:49;15.18;;;2.72;;
64353;SDS011;50681;53.334;-6.536;2023-11-19T05:31:15;12.20;;;2.42;;
64353;SDS011;50681;53.334;-6.536;2023-11-19T05:36:06;19.27;;;2.55;;
64353;SDS011;50681;53.334;-6.536;2023-11-19T05:38:33;19.83;;;2.80;;
64353;SDS011;50681;53.334;-6.536;2023-11-19T05:40:59;15.15;;;2.35;;
64353;SDS011;50681;53.334;-6.536;2023-11-19T05:43:24;16.30;;;2.40;;
64353;SDS011;50681;53.334;-6.536;2023-11-19T05:45:50;17.43;;;2.50;;
64353;SDS011;50681;53.334;-6.536;2023-11-19T05:48:15;18.97;;;2.53;;
64353;SDS011;50681;53.334;-6.536;2023-11-19T05:53:07;14.57;;;2.47;;
64353;SDS011;50681;53.334;-6.536;2023-11-19T05:55:35;19.77;;;3.28;;
64353;SDS011;50681;53.334;-6.536;2023-11-19T05:58:02;18.25;;;2.58;;
64353;SDS011;50681;53.334;-6.536;2023-11-19T06:00:29;15.30;;;2.40;;
64353;SDS011;50681;53.334;-6.536;2023-11-19T06:05:21;16.45;;;2.80;;
64353;SDS011;50681;53.334;-6.536;2023-11-19T06:07:46;12.93;;;1.97;;
64353;SDS011;50681;53.334;-6.536;2023-11-19T06:10:11;17.13;;;3.00;;
64353;SDS011;50681;53.334;-6.536;2023-11-19T06:12:39;10.85;;;2.35;;
64353;SDS011;50681;53.334;-6.536;2023-11-19T06:15:06;18.23;;;2.67;;
64353;SDS011;50681;53.334;-6.536;2023-11-19T06:17:33;15.07;;;2.67;;
64353;SDS011;50681;53.334;-6.536;2023-11-19T06:19:59;12.23;;;1.85;;
64353;SDS011;50681;53.334;-6.536;2023-11-19T06:22:24;11.90;;;2.20;;
64353;SDS011;50681;53.334;-6.536;2023-11-19T06:24:50;16.10;;;2.30;;
64353;SDS011;50681;53.334;-6.536;2023-11-19T06:27:15;14.57;;;2.57;;
64353;SDS011;50681;53.334;-6.536;2023-11-19T06:29:41;11.03;;;2.27;;
64353;SDS011;50681;53.334;-6.536;2023-11-19T06:32:06;19.00;;;2.45;;
64353;SDS011;50681;53.334;-6.536;2023-11-19T06:34:33;16.15;;;2.17;;
64353;SDS011;50681;53.334;-6.536;2023-11-19T06:36:59;16.00;;;2.13;;
64353;SDS011;50681;53.334;-6.536;2023-11-19T06:39:24;19.70;;;2.77;;
64353;SDS011;50681;53.334;-6.536;2023-11-19T06:41:50;17.40;;;2.80;;
64353;SDS011;50681;53.334;-6.536;2023-11-19T06:44:15;14.48;;;2.50;;
64353;SDS011;50681;53.334;-6.536;2023-11-19T06:46:41;20.53;;;2.47;;
64353;SDS011;50681;53.334;-6.536;2023-11-19T06:49:06;13.30;;;2.87;;
64353;SDS011;50681;53.334;-6.536;2023-11-19T06:51:33;16.20;;;2.88;;
64353;SDS011;50681;53.334;-6.536;2023-11-19T06:53:59;16.67;;;2.55;;
64353;SDS011;50681;53.334;-6.536;2023-11-19T06:56:24;19.47;;;2.87;;
64353;SDS011;50681;53.334;-6.536;2023-11-19T06:58:50;23.33;;;3.55;;
64353;SDS011;50681;53.334;-6.536;2023-11-19T07:01:16;25.35;;;2.88;;
64353;SDS011;50681;53.334;-6.536;2023-11-19T07:06:10;19.75;;;3.25;;
64353;SDS011;50681;53.334;-6.536;2023-11-19T07:08:35;21.45;;;2.33;;
64353;SDS011;50681;53.334;-6.536;2023-11-19T07:11:01;18.27;;;2.88;;
64353;SDS011;50681;53.334;-6.536;2023-11-19T07:13:28;14.55;;;2.55;;
64353;SDS011;50681;53.334;-6.536;2023-11-19T07:15:55;17.73;;;2.77;;
64353;SDS011;50681;53.334;-6.536;2023-11-19T07:18:21;16.33;;;2.22;;
64353;SDS011;50681;53.334;-6.536;2023-11-19T07:20:49;11.55;;;2.30;;
64353;SDS011;50681;53.334;-6.536;2023-11-19T07:25:50;17.63;;;2.65;;
64353;SDS011;50681;53.334;-6.536;2023-11-19T07:28:19;12.75;;;2.30;;
64353;SDS011;50681;53.334;-6.536;2023-11-19T07:30:45;13.80;;;2.78;;
64353;SDS011;50681;53.334;-6.536;2023-11-19T07:33:14;11.65;;;1.98;;
64353;SDS011;50681;53.334;-6.536;2023-11-19T07:35:40;10.50;;;2.20;;
64353;SDS011;50681;53.334;-6.536;2023-11-19T07:38:07;9.50;;;1.80;;
64353;SDS011;50681;53.334;-6.536;2023-11-19T07:40:32;13.20;;;2.17;;
64353;SDS011;50681;53.334;-6.536;2023-11-19T07:42:58;9.77;;;1.67;;
64353;SDS011;50681;53.334;-6.536;2023-11-19T07:45:23;10.00;;;1.50;;
64353;SDS011;50681;53.334;-6.536;2023-11-19T07:47:49;13.70;;;1.83;;
64353;SDS011;50681;53.334;-6.536;2023-11-19T07:50:16;12.80;;;2.15;;
64353;SDS011;50681;53.334;-6.536;2023-11-19T07:52:44;7.25;;;1.60;;
64353;SDS011;50681;53.334;-6.536;2023-11-19T07:55:09;12.00;;;2.47;;
64353;SDS011;50681;53.334;-6.536;2023-11-19T07:57:35;11.33;;;1.83;;
64353;SDS011;50681;53.334;-6.536;2023-11-19T08:00:00;9.20;;;1.87;;
64353;SDS011;50681;53.334;-6.536;2023-11-19T08:02:27;8.68;;;1.50;;
64353;SDS011;50681;53.334;-6.536;2023-11-19T08:04:52;6.13;;;1.20;;
64353;SDS011;50681;53.334;-6.536;2023-11-19T08:07:20;8.57;;;1.13;;
64353;SDS011;50681;53.334;-6.536;2023-11-19T08:09:45;10.60;;;1.50;;
64353;SDS011;50681;53.334;-6.536;2023-11-19T08:12:11;9.30;;;1.40;;
64353;SDS011;50681;53.334;-6.536;2023-11-19T08:14:39;5.63;;;1.30;;
64353;SDS011;50681;53.334;-6.536;2023-11-19T08:17:04;10.87;;;1.80;;
64353;SDS011;50681;53.334;-6.536;2023-11-19T08:19:30;9.33;;;1.67;;
64353;SDS011;50681;53.334;-6.536;2023-11-19T08:21:55;6.90;;;1.57;;
64353;SDS011;50681;53.334;-6.536;2023-11-19T08:24:20;10.73;;;1.20;;
64353;SDS011;50681;53.334;-6.536;2023-11-19T08:26:46;8.43;;;1.63;;
64353;SDS011;50681;53.334;-6.536;2023-11-19T08:29:11;8.47;;;1.50;;
64353;SDS011;50681;53.334;-6.536;2023-11-19T08:31:37;6.33;;;1.30;;
64353;SDS011;50681;53.334;-6.536;2023-11-19T08:34:02;5.20;;;1.30;;
64353;SDS011;50681;53.334;-6.536;2023-11-19T08:36:27;5.83;;;0.80;;
64353;SDS011;50681;53.334;-6.536;2023-11-19T08:38:53;6.27;;;1.60;;
64353;SDS011;50681;53.334;-6.536;2023-11-19T08:41:18;4.53;;;1.08;;
64353;SDS011;50681;53.334;-6.536;2023-11-19T08:43:44;8.40;;;1.37;;
64353;SDS011;50681;53.334;-6.536;2023-11-19T08:46:10;5.57;;;1.10;;
64353;SDS011;50681;53.334;-6.536;2023-11-19T08:48:36;7.97;;;1.30;;
64353;SDS011;50681;53.334;-6.536;2023-11-19T08:51:01;4.80;;;1.50;;
64353;SDS011;50681;53.334;-6.536;2023-11-19T08:53:27;4.60;;;0.97;;
64353;SDS011;50681;53.334;-6.536;2023-11-19T08:55:52;6.80;;;1.33;;
64353;SDS011;50681;53.334;-6.536;2023-11-19T08:58:18;3.00;;;0.70;;
64353;SDS011;50681;53.334;-6.536;2023-11-19T09:00:43;4.50;;;0.90;;
64353;SDS011;50681;53.334;-6.536;2023-11-19T09:03:09;3.07;;;0.93;;
64353;SDS011;50681;53.334;-6.536;2023-11-19T09:05:34;2.13;;;0.70;;
64353;SDS011;50681;53.334;-6.536;2023-11-19T09:07:59;3.03;;;0.90;;
64353;SDS011;50681;53.334;-6.536;2023-11-19T09:10:25;4.80;;;0.80;;
64353;SDS011;50681;53.334;-6.536;2023-11-19T09:12:52;5.78;;;0.95;;
64353;SDS011;50681;53.334;-6.536;2023-11-19T09:15:17;3.00;;;0.80;;
64353;SDS011;50681;53.334;-6.536;2023-11-19T09:17:43;2.73;;;0.90;;
64353;SDS011;50681;53.334;-6.536;2023-11-19T09:20:08;4.70;;;0.60;;
64353;SDS011;50681;53.334;-6.536;2023-11-19T09:22:37;1.20;;;0.40;;
64353;SDS011;50681;53.334;-6.536;2023-11-19T09:25:02;0.70;;;0.40;;
64353;SDS011;50681;53.334;-6.536;2023-11-19T09:27:28;1.55;;;0.60;;
64353;SDS011;50681;53.334;-6.536;2023-11-19T09:29:54;3.77;;;0.77;;
64353;SDS011;50681;53.334;-6.536;2023-11-19T09:32:22;1.42;;;0.60;;
64353;SDS011;50681;53.334;-6.536;2023-11-19T09:34:48;2.53;;;0.50;;
64353;SDS011;50681;53.334;-6.536;2023-11-19T09:37:13;0.53;;;0.30;;
64353;SDS011;50681;53.334;-6.536;2023-11-19T09:39:39;1.23;;;0.60;;
64353;SDS011;50681;53.334;-6.536;2023-11-19T09:42:08;11.57;;;7.07;;
64353;SDS011;50681;53.334;-6.536;2023-11-19T09:47:00;8.10;;;2.10;;
64353;SDS011;50681;53.334;-6.536;2023-11-19T09:49:26;3.67;;;1.70;;
64353;SDS011;50681;53.334;-6.536;2023-11-19T09:51:53;17.05;;;5.95;;
64353;SDS011;50681;53.334;-6.536;2023-11-19T09:54:18;3.80;;;1.00;;
64353;SDS011;50681;53.334;-6.536;2023-11-19T09:56:44;2.20;;;0.80;;
64353;SDS011;50681;53.334;-6.536;2023-11-19T09:59:10;3.85;;;1.15;;
64353;SDS011;50681;53.334;-6.536;2023-11-19T10:01:36;3.83;;;1.70;;
64353;SDS011;50681;53.334;-6.536;2023-11-19T10:04:03;8.70;;;3.40;;
64353;SDS011;50681;53.334;-6.536;2023-11-19T10:06:30;5.45;;;1.40;;
64353;SDS011;50681;53.334;-6.536;2023-11-19T10:08:55;6.90;;;1.57;;
64353;SDS011;50681;53.334;-6.536;2023-11-19T10:11:21;12.00;;;4.40;;
64353;SDS011;50681;53.334;-6.536;2023-11-19T10:13:46;13.27;;;4.43;;
64353;SDS011;50681;53.334;-6.536;2023-11-19T10:16:13;6.97;;;2.50;;
64353;SDS011;50681;53.334;-6.536;2023-11-19T10:18:48;10.25;;;2.80;;
64353;SDS011;50681;53.334;-6.536;2023-11-19T10:21:17;6.50;;;1.60;;
64353;SDS011;50681;53.334;-6.536;2023-11-19T10:23:53;14.98;;;2.17;;
64353;SDS011;50681;53.334;-6.536;2023-11-19T10:26:22;10.05;;;2.65;;
64353;SDS011;50681;53.334;-6.536;2023-11-19T10:28:48;6.50;;;2.10;;
64353;SDS011;50681;53.334;-6.536;2023-11-19T10:31:14;11.60;;;4.70;;
64353;SDS011;50681;53.334;-6.536;2023-11-19T10:36:07;19.45;;;5.25;;
64353;SDS011;50681;53.334;-6.536;2023-11-19T10:38:33;3.33;;;0.80;;
64353;SDS011;50681;53.334;-6.536;2023-11-19T10:41:06;8.27;;;2.13;;
64353;SDS011;50681;53.334;-6.536;2023-11-19T10:43:41;9.13;;;1.95;;
64353;SDS011;50681;53.334;-6.536;2023-11-19T10:46:10;4.38;;;0.80;;
64353;SDS011;50681;53.334;-6.536;2023-11-19T10:48:36;3.13;;;0.65;;
64353;SDS011;50681;53.334;-6.536;2023-11-19T10:51:02;2.37;;;0.60;;
64353;SDS011;50681;53.334;-6.536;2023-11-19T10:53:33;6.43;;;2.50;;
64353;SDS011;50681;53.334;-6.536;2023-11-19T10:56:01;3.50;;;1.33;;
64353;SDS011;50681;53.334;-6.536;2023-11-19T10:58:29;6.47;;;1.83;;
64353;SDS011;50681;53.334;-6.536;2023-11-19T11:00:57;4.25;;;1.40;;
64353;SDS011;50681;53.334;-6.536;2023-11-19T11:03:31;29.35;;;11.45;;
64353;SDS011;50681;53.334;-6.536;2023-11-19T11:06:04;4.32;;;1.13;;
64353;SDS011;50681;53.334;-6.536;2023-11-19T11:08:30;1.80;;;0.77;;
64353;SDS011;50681;53.334;-6.536;2023-11-19T11:10:56;6.18;;;2.40;;
64353;SDS011;50681;53.334;-6.536;2023-11-19T11:13:25;3.88;;;1.13;;
64353;SDS011;50681;53.334;-6.536;2023-11-19T11:15:55;17.00;;;5.70;;
64353;SDS011;50681;53.334;-6.536;2023-11-19T11:18:23;5.03;;;1.77;;
64353;SDS011;50681;53.334;-6.536;2023-11-19T11:20:52;4.93;;;1.00;;
64353;SDS011;50681;53.334;-6.536;2023-11-19T11:29:26;8.82;;;2.45;;
64353;SDS011;50681;53.334;-6.536;2023-11-19T11:37:45;2.75;;;0.60;;
64353;SDS011;50681;53.334;-6.536;2023-11-19T11:40:16;4.65;;;1.10;;
64353;SDS011;50681;53.334;-6.536;2023-11-19T11:42:43;3.05;;;0.90;;
64353;SDS011;50681;53.334;-6.536;2023-11-19T11:45:12;5.28;;;1.05;;
64353;SDS011;50681;53.334;-6.536;2023-11-19T11:50:09;4.53;;;1.58;;
64353;SDS011;50681;53.334;-6.536;2023-11-19T11:53:39;4.53;;;2.53;;
64353;SDS011;50681;53.334;-6.536;2023-11-19T11:58:18;4.40;;;1.42;;
64353;SDS011;50681;53.334;-6.536;2023-11-19T12:00:47;4.68;;;1.17;;
64353;SDS011;50681;53.334;-6.536;2023-11-19T12:03:13;3.72;;;1.05;;
64353;SDS011;50681;53.334;-6.536;2023-11-19T12:05:47;5.57;;;1.17;;
64353;SDS011;50681;53.334;-6.536;2023-11-19T12:08:13;4.22;;;1.42;;
64353;SDS011;50681;53.334;-6.536;2023-11-19T12:10:47;4.47;;;1.20;;
64353;SDS011;50681;53.334;-6.536;2023-11-19T12:13:14;6.63;;;1.40;;
64353;SDS011;50681;53.334;-6.536;2023-11-19T12:18:22;4.90;;;1.92;;
64353;SDS011;50681;53.334;-6.536;2023-11-19T12:20:48;5.53;;;1.58;;
64353;SDS011;50681;53.334;-6.536;2023-11-19T12:23:14;4.28;;;1.10;;
64353;SDS011;50681;53.334;-6.536;2023-11-19T12:25:40;9.45;;;1.77;;
64353;SDS011;50681;53.334;-6.536;2023-11-19T12:28:06;7.57;;;1.38;;
64353;SDS011;50681;53.334;-6.536;2023-11-19T12:30:37;3.03;;;0.88;;
64353;SDS011;50681;53.334;-6.536;2023-11-19T12:33:07;2.20;;;0.77;;
64353;SDS011;50681;53.334;-6.536;2023-11-19T12:35:42;2.92;;;1.08;;
64353;SDS011;50681;53.334;-6.536;2023-11-19T12:38:18;5.70;;;1.70;;
64353;SDS011;50681;53.334;-6.536;2023-11-19T12:40:44;3.35;;;1.23;;
64353;SDS011;50681;53.334;-6.536;2023-11-19T12:43:09;3.77;;;1.10;;
64353;SDS011;50681;53.334;-6.536;2023-11-19T12:45:35;4.93;;;1.30;;
64353;SDS011;50681;53.334;-6.536;2023-11-19T12:48:04;2.28;;;0.93;;
64353;SDS011;50681;53.334;-6.536;2023-11-19T12:50:45;7.45;;;1.10;;
64353;SDS011;50681;53.334;-6.536;2023-11-19T12:53:16;17.27;;;2.22;;
64353;SDS011;50681;53.334;-6.536;2023-11-19T12:55:42;14.73;;;1.90;;
64353;SDS011;50681;53.334;-6.536;2023-11-19T12:58:07;12.33;;;2.50;;
64353;SDS011;50681;53.334;-6.536;2023-11-19T13:00:33;19.90;;;2.83;;
64353;SDS011;50681;53.334;-6.536;2023-11-19T13:02:58;11.37;;;2.87;;
64353;SDS011;50681;53.334;-6.536;2023-11-19T13:05:28;14.97;;;2.93;;
64353;SDS011;50681;53.334;-6.536;2023-11-19T13:08:01;16.52;;;3.17;;
64353;SDS011;50681;53.334;-6.536;2023-11-19T13:10:31;24.90;;;4.20;;
64353;SDS011;50681;53.334;-6.536;2023-11-19T13:13:20;25.30;;;4.57;;
64353;SDS011;50681;53.334;-6.536;2023-11-19T13:15:45;17.85;;;3.53;;
64353;SDS011;50681;53.334;-6.536;2023-11-19T13:18:11;23.92;;;4.60;;
64353;SDS011;50681;53.334;-6.536;2023-11-19T13:20:37;30.52;;;4.38;;
64353;SDS011;50681;53.334;-6.536;2023-11-19T13:23:04;17.90;;;3.17;;
64353;SDS011;50681;53.334;-6.536;2023-11-19T13:25:30;14.90;;;4.05;;
64353;SDS011;50681;53.334;-6.536;2023-11-19T13:27:57;19.75;;;4.28;;
64353;SDS011;50681;53.334;-6.536;2023-11-19T13:30:27;27.50;;;4.82;;
64353;SDS011;50681;53.334;-6.536;2023-11-19T13:32:54;26.25;;;4.78;;
64353;SDS011;50681;53.334;-6.536;2023-11-19T13:35:22;14.73;;;3.03;;
64353;SDS011;50681;53.334;-6.536;2023-11-19T13:37:48;27.97;;;4.50;;
64353;SDS011;50681;53.334;-6.536;2023-11-19T13:40:13;22.15;;;3.55;;
64353;SDS011;50681;53.334;-6.536;2023-11-19T13:42:43;17.08;;;2.67;;
64353;SDS011;50681;53.334;-6.536;2023-11-19T13:45:09;22.45;;;3.85;;
64353;SDS011;50681;53.334;-6.536;2023-11-19T13:47:39;16.58;;;3.30;;
64353;SDS011;50681;53.334;-6.536;2023-11-19T13:50:09;12.65;;;2.90;;
64353;SDS011;50681;53.334;-6.536;2023-11-19T13:52:37;15.43;;;2.60;;
64353;SDS011;50681;53.334;-6.536;2023-11-19T13:55:07;22.42;;;4.10;;
64353;SDS011;50681;53.334;-6.536;2023-11-19T13:57:36;15.20;;;2.88;;
64353;SDS011;50681;53.334;-6.536;2023-11-19T14:00:03;13.68;;;2.85;;
64353;SDS011;50681;53.334;-6.536;2023-11-19T14:02:31;10.30;;;2.50;;
64353;SDS011;50681;53.334;-6.536;2023-11-19T14:04:57;18.60;;;2.95;;
64353;SDS011;50681;53.334;-6.536;2023-11-19T14:07:23;17.20;;;2.53;;
64353;SDS011;50681;53.334;-6.536;2023-11-19T14:09:48;23.40;;;3.37;;
64353;SDS011;50681;53.334;-6.536;2023-11-19T14:12:15;19.05;;;2.78;;
64353;SDS011;50681;53.334;-6.536;2023-11-19T14:14:40;19.53;;;3.57;;
64353;SDS011;50681;53.334;-6.536;2023-11-19T14:17:07;21.02;;;3.45;;
64353;SDS011;50681;53.334;-6.536;2023-11-19T14:19:32;25.38;;;3.05;;
64353;SDS011;50681;53.334;-6.536;2023-11-19T14:21:58;17.37;;;3.67;;
64353;SDS011;50681;53.334;-6.536;2023-11-19T14:26:50;20.75;;;3.95;;
64353;SDS011;50681;53.334;-6.536;2023-11-19T14:29:16;19.63;;;3.53;;
64353;SDS011;50681;53.334;-6.536;2023-11-19T14:31:45;13.43;;;2.88;;
64353;SDS011;50681;53.334;-6.536;2023-11-19T14:34:11;9.77;;;2.33;;
64353;SDS011;50681;53.334;-6.536;2023-11-19T14:36:36;11.60;;;2.50;;
64353;SDS011;50681;53.334;-6.536;2023-11-19T14:39:01;7.80;;;1.33;;
64353;SDS011;50681;53.334;-6.536;2023-11-19T14:41:28;16.95;;;2.58;;
64353;SDS011;50681;53.334;-6.536;2023-11-19T14:43:54;17.73;;;2.63;;
64353;SDS011;50681;53.334;-6.536;2023-11-19T14:46:19;13.23;;;3.40;;
64353;SDS011;50681;53.334;-6.536;2023-11-19T14:48:45;17.57;;;3.63;;
64353;SDS011;50681;53.334;-6.536;2023-11-19T14:51:10;11.73;;;3.60;;
64353;SDS011;50681;53.334;-6.536;2023-11-19T14:53:35;14.33;;;3.47;;
64353;SDS011;50681;53.334;-6.536;2023-11-19T14:56:01;18.67;;;3.47;;
64353;SDS011;50681;53.334;-6.536;2023-11-19T14:58:27;22.05;;;3.50;;
64353;SDS011;50681;53.334;-6.536;2023-11-19T15:00:52;7.60;;;2.00;;
64353;SDS011;50681;53.334;-6.536;2023-11-19T15:03:18;14.60;;;2.37;;
64353;SDS011;50681;53.334;-6.536;2023-11-19T15:05:47;18.85;;;2.85;;
64353;SDS011;50681;53.334;-6.536;2023-11-19T15:08:13;21.25;;;4.15;;
64353;SDS011;50681;53.334;-6.536;2023-11-19T15:10:41;8.18;;;2.42;;
64353;SDS011;50681;53.334;-6.536;2023-11-19T15:13:07;8.02;;;2.22;;
64353;SDS011;50681;53.334;-6.536;2023-11-19T15:15:33;25.38;;;4.05;;